Yasemin — 9HA2114 — position and weather

sailwx.info

Track history (hours):
 
Tides and Currents Weather Stations Pressure Air Temp Water Temp Dewpoint Dewpoint Depression Visibility Wind Speed Wind Dir Waves Ship Positions

Yasemin

Last reported at 2017-May-25 10:48 UTC. Time now 2017-May-25 23:59 UTC.
Position N 40°39' W 008°55'.

Length 105 m; draft 5.4 m.

Type: Cargo ship. MMSI: 249988000.

Date/timePositionNaut miles runAvg speedWind from/ knotsBaromVisibWave heightAir tempDewpointWater temp
2017-May-25 10:48N 40°39' W 008°55'0 0.0
2017-May-25 06:30N 40°39' W 008°55'0 0.0
2017-May-25 06:00N 40°39' W 008°55'0 0.0
2017-May-25 03:54N 40°39' W 008°55'0 0.0
2017-May-25 03:30N 40°39' W 008°55'0 0.0
2017-May-25 03:00N 40°39' W 008°55'0 0.0
2017-May-24 23:48N 40°39' W 008°55'8 0.4
2017-May-24 03:05N 40°39' W 008°44'0 0.0
2017-May-24 02:29N 40°39' W 008°44'0 0.0
2017-May-24 01:59N 40°39' W 008°44'0 0.0
2017-May-24 01:29N 40°39' W 008°44'0 0.0
2017-May-24 00:59N 40°39' W 008°44'0 0.0
2017-May-22 22:23N 40°39' W 008°44'0 0.0
2017-May-22 15:35N 40°39' W 008°44'0 0.0
2017-May-22 15:17N 40°39' W 008°44'  
2017-May-20 08:28N 40°31' W 009°32'  
2017-May-17 17:25N 37°52' W 024°23'511.5
2017-May-17 17:00N 37°51' W 024°29'611.4
2017-May-17 16:30N 37°49' W 024°36'611.1
2017-May-17 16:00N 37°48' W 024°43'611.0
2017-May-17 15:30N 37°47' W 024°50'611.1
2017-May-17 15:00N 37°45' W 024°56'611.3
2017-May-17 14:30N 37°44' W 025°03'1111.3
2017-May-17 13:30N 37°41' W 025°17'611.1
2017-May-17 13:00N 37°41' W 025°24'611.2
2017-May-17 12:30N 37°41' W 025°31'5 9.8
2017-May-17 12:01N 37°43' W 025°37'2 4.6
2017-May-17 11:29N 37°44' W 025°40'0 0.0
2017-May-17 10:59N 37°44' W 025°40'0 0.0
2017-May-17 10:29N 37°44' W 025°40'0 0.0
2017-May-17 09:59N 37°44' W 025°40'0 0.0
2017-May-17 09:29N 37°44' W 025°40'0 0.0
2017-May-17 08:59N 37°44' W 025°40'0 0.0
2017-May-17 08:29N 37°44' W 025°40'0 0.0
2017-May-17 07:59N 37°44' W 025°40'0 0.0
2017-May-17 07:29N 37°44' W 025°40'0 0.0
2017-May-17 06:59N 37°44' W 025°40'0 0.0
2017-May-17 06:29N 37°44' W 025°40'0 0.0
2017-May-17 05:59N 37°44' W 025°40'0 0.0
2017-May-17 05:29N 37°44' W 025°40'0 0.0
2017-May-17 04:59N 37°44' W 025°40'0 0.0
2017-May-17 04:29N 37°44' W 025°40'0 0.0
2017-May-17 03:59N 37°44' W 025°40'0 0.0
2017-May-17 03:29N 37°44' W 025°40'0 0.0
2017-May-17 02:59N 37°44' W 025°40'0 0.0
2017-May-17 02:29N 37°44' W 025°40'0 0.0
2017-May-17 01:59N 37°44' W 025°40'0 0.0
2017-May-17 01:29N 37°44' W 025°40'0 0.0
2017-May-17 00:59N 37°44' W 025°40'0 0.0
2017-May-17 00:29N 37°44' W 025°40'0 0.0
2017-May-16 23:59N 37°44' W 025°40'0 0.0
2017-May-16 23:29N 37°44' W 025°40'0 0.0
2017-May-16 22:59N 37°44' W 025°40'0 0.0
2017-May-16 22:29N 37°44' W 025°40'0 0.0
2017-May-16 21:59N 37°44' W 025°40'0 0.0
2017-May-16 21:29N 37°44' W 025°40'0 0.0
2017-May-16 20:59N 37°44' W 025°40'0 0.0
2017-May-16 20:29N 37°44' W 025°40'0 0.0
2017-May-16 19:59N 37°44' W 025°40'0 0.0
2017-May-16 19:29N 37°44' W 025°40'0 0.0
2017-May-16 18:59N 37°44' W 025°40'0 0.0
2017-May-16 18:29N 37°44' W 025°40'0 0.0
2017-May-16 17:59N 37°44' W 025°40'0 0.0
2017-May-16 17:29N 37°44' W 025°40'0 0.0
2017-May-16 16:59N 37°44' W 025°40'0 0.0
2017-May-16 16:29N 37°44' W 025°40'0 0.0
2017-May-16 15:59N 37°44' W 025°40'0 0.0
2017-May-16 15:29N 37°44' W 025°40'0 0.0
2017-May-16 14:59N 37°44' W 025°40'0 0.0
2017-May-16 14:29N 37°44' W 025°40'0 0.0
2017-May-16 13:29N 37°44' W 025°40'0 0.0
2017-May-16 12:59N 37°44' W 025°40'0 0.0
2017-May-16 12:29N 37°44' W 025°40'0 0.0
2017-May-16 11:59N 37°44' W 025°40'0 0.0
2017-May-16 11:29N 37°44' W 025°40'0 0.0
2017-May-16 10:59N 37°44' W 025°40'0 0.0
2017-May-16 10:29N 37°44' W 025°40'0 0.0
2017-May-16 09:59N 37°44' W 025°40'0 0.0
2017-May-16 09:29N 37°44' W 025°40'0 0.0
2017-May-16 08:59N 37°44' W 025°40'0 0.0
2017-May-16 08:29N 37°44' W 025°40'0 0.0
2017-May-16 07:59N 37°44' W 025°40'0 0.0
2017-May-16 07:29N 37°44' W 025°40'0 0.0
2017-May-16 06:59N 37°44' W 025°40'0 0.0
2017-May-16 06:29N 37°44' W 025°40'0 0.0
2017-May-16 05:59N 37°44' W 025°40'0 0.0
2017-May-16 05:29N 37°44' W 025°40'0 0.0
2017-May-16 04:59N 37°44' W 025°40'0 0.0
2017-May-16 04:29N 37°44' W 025°40'0 0.0
2017-May-16 03:59N 37°44' W 025°40'0 0.0
2017-May-16 03:29N 37°44' W 025°40'0 0.0
2017-May-16 02:59N 37°44' W 025°40'0 0.0
2017-May-16 02:29N 37°44' W 025°40'0 0.0
2017-May-16 01:59N 37°44' W 025°40'0 0.0
2017-May-16 01:29N 37°44' W 025°40'0 0.0
2017-May-16 00:59N 37°44' W 025°40'0 0.0
2017-May-16 00:29N 37°44' W 025°40'0 0.0
2017-May-15 23:59N 37°44' W 025°40'0 0.0
2017-May-15 23:29N 37°44' W 025°40'0 0.0
2017-May-15 22:59N 37°44' W 025°40'0 0.0
2017-May-15 22:29N 37°44' W 025°40'0 0.0
2017-May-15 21:59N 37°44' W 025°40'0 0.0
2017-May-15 21:29N 37°44' W 025°40'0 0.0
2017-May-15 20:59N 37°44' W 025°40'0 0.0
2017-May-15 20:29N 37°44' W 025°40'0 0.0
2017-May-15 19:59N 37°44' W 025°40'0 0.0
2017-May-15 19:29N 37°44' W 025°40'0 0.0
2017-May-15 18:59N 37°44' W 025°40'0 0.0
2017-May-15 18:29N 37°44' W 025°40'0 0.0
2017-May-15 17:59N 37°44' W 025°40'0 0.0
2017-May-15 17:29N 37°44' W 025°40'0 0.0
2017-May-15 16:59N 37°44' W 025°40'0 0.0
2017-May-15 16:29N 37°44' W 025°40'0 0.0
2017-May-15 15:59N 37°44' W 025°40'0 0.0
2017-May-15 15:30N 37°44' W 025°40'0 0.2
2017-May-15 15:00N 37°44' W 025°40'1 2.1
2017-May-15 14:31N 37°43' W 025°39'1 1.1
2017-May-15 13:30N 37°43' W 025°40'1 1.0
2017-May-15 13:00N 37°42' W 025°40'1 1.1
2017-May-15 12:30N 37°42' W 025°40'1 1.9
2017-May-15 12:01N 37°42' W 025°39'0 0.2
2017-May-15 11:31N 37°42' W 025°39'0 0.6
2017-May-15 11:01N 37°42' W 025°39'  
Track history (hours):
 
Tides and Currents Weather Stations Pressure Air Temp Water Temp Dewpoint Dewpoint Depression Visibility Wind Speed Wind Dir Waves Ship Positions

Yasemin

Last reported at 2017-May-25 10:48 UTC. Time now 2017-May-25 23:59 UTC.
Position N 40°39' W 008°55'.

Length 105 m; draft 5.4 m.

Type: Cargo ship. MMSI: 249988000.

Date/timePositionNaut miles runAvg speedWind from/ knotsBaromVisibWave heightAir tempDewpointWater temp
2017-May-25 10:48N 40°39' W 008°55'0 0.0
2017-May-25 06:30N 40°39' W 008°55'0 0.0
2017-May-25 06:00N 40°39' W 008°55'0 0.0
2017-May-25 03:54N 40°39' W 008°55'0 0.0
2017-May-25 03:30N 40°39' W 008°55'0 0.0
2017-May-25 03:00N 40°39' W 008°55'0 0.0
2017-May-24 23:48N 40°39' W 008°55'8 0.4
2017-May-24 03:05N 40°39' W 008°44'0 0.0
2017-May-24 02:29N 40°39' W 008°44'0 0.0
2017-May-24 01:59N 40°39' W 008°44'0 0.0
2017-May-24 01:29N 40°39' W 008°44'0 0.0
2017-May-24 00:59N 40°39' W 008°44'0 0.0
2017-May-22 22:23N 40°39' W 008°44'0 0.0
2017-May-22 15:35N 40°39' W 008°44'0 0.0
2017-May-22 15:17N 40°39' W 008°44'  
2017-May-20 08:28N 40°31' W 009°32'  
2017-May-17 17:25N 37°52' W 024°23'511.5
2017-May-17 17:00N 37°51' W 024°29'611.4
2017-May-17 16:30N 37°49' W 024°36'611.1
2017-May-17 16:00N 37°48' W 024°43'611.0
2017-May-17 15:30N 37°47' W 024°50'611.1
2017-May-17 15:00N 37°45' W 024°56'611.3
2017-May-17 14:30N 37°44' W 025°03'1111.3
2017-May-17 13:30N 37°41' W 025°17'611.1
2017-May-17 13:00N 37°41' W 025°24'611.2
2017-May-17 12:30N 37°41' W 025°31'5 9.8
2017-May-17 12:01N 37°43' W 025°37'2 4.6
2017-May-17 11:29N 37°44' W 025°40'0 0.0
2017-May-17 10:59N 37°44' W 025°40'0 0.0
2017-May-17 10:29N 37°44' W 025°40'0 0.0
2017-May-17 09:59N 37°44' W 025°40'0 0.0
2017-May-17 09:29N 37°44' W 025°40'0 0.0
2017-May-17 08:59N 37°44' W 025°40'0 0.0
2017-May-17 08:29N 37°44' W 025°40'0 0.0
2017-May-17 07:59N 37°44' W 025°40'0 0.0
2017-May-17 07:29N 37°44' W 025°40'0 0.0
2017-May-17 06:59N 37°44' W 025°40'0 0.0
2017-May-17 06:29N 37°44' W 025°40'0 0.0
2017-May-17 05:59N 37°44' W 025°40'0 0.0
2017-May-17 05:29N 37°44' W 025°40'0 0.0
2017-May-17 04:59N 37°44' W 025°40'0 0.0
2017-May-17 04:29N 37°44' W 025°40'0 0.0
2017-May-17 03:59N 37°44' W 025°40'0 0.0
2017-May-17 03:29N 37°44' W 025°40'0 0.0
2017-May-17 02:59N 37°44' W 025°40'0 0.0
2017-May-17 02:29N 37°44' W 025°40'0 0.0
2017-May-17 01:59N 37°44' W 025°40'0 0.0
2017-May-17 01:29N 37°44' W 025°40'0 0.0
2017-May-17 00:59N 37°44' W 025°40'0 0.0
2017-May-17 00:29N 37°44' W 025°40'0 0.0
2017-May-16 23:59N 37°44' W 025°40'0 0.0
2017-May-16 23:29N 37°44' W 025°40'0 0.0
2017-May-16 22:59N 37°44' W 025°40'0 0.0
2017-May-16 22:29N 37°44' W 025°40'0 0.0
2017-May-16 21:59N 37°44' W 025°40'0 0.0
2017-May-16 21:29N 37°44' W 025°40'0 0.0
2017-May-16 20:59N 37°44' W 025°40'0 0.0
2017-May-16 20:29N 37°44' W 025°40'0 0.0
2017-May-16 19:59N 37°44' W 025°40'0 0.0
2017-May-16 19:29N 37°44' W 025°40'0 0.0
2017-May-16 18:59N 37°44' W 025°40'0 0.0
2017-May-16 18:29N 37°44' W 025°40'0 0.0
2017-May-16 17:59N 37°44' W 025°40'0 0.0
2017-May-16 17:29N 37°44' W 025°40'0 0.0
2017-May-16 16:59N 37°44' W 025°40'0 0.0
2017-May-16 16:29N 37°44' W 025°40'0 0.0
2017-May-16 15:59N 37°44' W 025°40'0 0.0
2017-May-16 15:29N 37°44' W 025°40'0 0.0
2017-May-16 14:59N 37°44' W 025°40'0 0.0
2017-May-16 14:29N 37°44' W 025°40'0 0.0
2017-May-16 13:29N 37°44' W 025°40'0 0.0
2017-May-16 12:59N 37°44' W 025°40'0 0.0
2017-May-16 12:29N 37°44' W 025°40'0 0.0
2017-May-16 11:59N 37°44' W 025°40'0 0.0
2017-May-16 11:29N 37°44' W 025°40'0 0.0
2017-May-16 10:59N 37°44' W 025°40'0 0.0
2017-May-16 10:29N 37°44' W 025°40'0 0.0
2017-May-16 09:59N 37°44' W 025°40'0 0.0
2017-May-16 09:29N 37°44' W 025°40'0 0.0
2017-May-16 08:59N 37°44' W 025°40'0 0.0
2017-May-16 08:29N 37°44' W 025°40'0 0.0
2017-May-16 07:59N 37°44' W 025°40'0 0.0
2017-May-16 07:29N 37°44' W 025°40'0 0.0
2017-May-16 06:59N 37°44' W 025°40'0 0.0
2017-May-16 06:29N 37°44' W 025°40'0 0.0
2017-May-16 05:59N 37°44' W 025°40'0 0.0
2017-May-16 05:29N 37°44' W 025°40'0 0.0
2017-May-16 04:59N 37°44' W 025°40'0 0.0
2017-May-16 04:29N 37°44' W 025°40'0 0.0
2017-May-16 03:59N 37°44' W 025°40'0 0.0
2017-May-16 03:29N 37°44' W 025°40'0 0.0
2017-May-16 02:59N 37°44' W 025°40'0 0.0
2017-May-16 02:29N 37°44' W 025°40'0 0.0
2017-May-16 01:59N 37°44' W 025°40'0 0.0
2017-May-16 01:29N 37°44' W 025°40'0 0.0
2017-May-16 00:59N 37°44' W 025°40'0 0.0
2017-May-16 00:29N 37°44' W 025°40'0 0.0
2017-May-15 23:59N 37°44' W 025°40'0 0.0
2017-May-15 23:29N 37°44' W 025°40'0 0.0
2017-May-15 22:59N 37°44' W 025°40'0 0.0
2017-May-15 22:29N 37°44' W 025°40'0 0.0
2017-May-15 21:59N 37°44' W 025°40'0 0.0
2017-May-15 21:29N 37°44' W 025°40'0 0.0
2017-May-15 20:59N 37°44' W 025°40'0 0.0
2017-May-15 20:29N 37°44' W 025°40'0 0.0
2017-May-15 19:59N 37°44' W 025°40'0 0.0
2017-May-15 19:29N 37°44' W 025°40'0 0.0
2017-May-15 18:59N 37°44' W 025°40'0 0.0
2017-May-15 18:29N 37°44' W 025°40'0 0.0
2017-May-15 17:59N 37°44' W 025°40'0 0.0
2017-May-15 17:29N 37°44' W 025°40'0 0.0
2017-May-15 16:59N 37°44' W 025°40'0 0.0
2017-May-15 16:29N 37°44' W 025°40'0 0.0
2017-May-15 15:59N 37°44' W 025°40'0 0.0
2017-May-15 15:30N 37°44' W 025°40'0 0.2
2017-May-15 15:00N 37°44' W 025°40'1 2.1
2017-May-15 14:31N 37°43' W 025°39'1 1.1
2017-May-15 13:30N 37°43' W 025°40'1 1.0
2017-May-15 13:00N 37°42' W 025°40'1 1.1
2017-May-15 12:30N 37°42' W 025°40'1 1.9
2017-May-15 12:01N 37°42' W 025°39'0 0.2
2017-May-15 11:31N 37°42' W 025°39'0 0.6
2017-May-15 11:01N 37°42' W 025°39'  

Dump ship's entire track history